PWSweather.com
Personal Weather Stations
Station Observations
KNJOAKLA6
Oakland, NJ 07436

Oakland, NJ 07436

Lat: 41.041, Lon: -74.231

Elevation: 280

Station Type: Davis VP 2

http://stratacolorado.com/oaknjwx/

Latest ConditionsUpdated 3:20:00 AM EDT Saturday, Nov 1, 2014
Currently Today's Max Today's Min Today's Average
Temperature 43.6°F6.4°C 48.2°F9.0°C 43.6°F6.4°C 45.8°F7.7°C
Dew Point 40.9°F4.9°C 44.5°F6.9°C 40.9°F4.9°C 42.0°F5.6°C
Winds 2.0 mph NE3.2 kmh NE 5.0 mph NE8.0 kmh NE - 2.1 mph 3.4 kmh
Wind Gusts 11.0 mph17.7 kmh 13.0 mph20.9 kmh - -
Humidity 90% 90% 83% 87%
Pressure 29.81 in1009.5 mb 29.86 in1011.2 mb 29.81 in1009.5 mb -
Precipitation - 0.02 in0.5 mm - -
Hour Temp Dew Point Humidity Winds Wind Gusts Pressure Precip Precip Rate Daily Precip Total
03:20 AM 43.6°F6.4°C 40.9°F4.9°C 90% 2.0 mph NE3.2 kmh NE 11.0 mph17.7 kmh 29.81 in1009.5 mb 0.01 in0.3 mm 0.00 in/hr0.0 mm/hr 0.02 in0.5 mm
03:10 AM 43.7°F6.5°C 41.0°F5.0°C 90% 3.0 mph NNE4.8 kmh NNE 11.0 mph17.7 kmh 29.82 in1009.8 mb 0.01 in0.3 mm 0.00 in/hr0.0 mm/hr 0.02 in0.5 mm
03:00 AM 43.9°F6.6°C 40.9°F4.9°C 89% 2.0 mph NNE3.2 kmh NNE 9.0 mph14.5 kmh 29.83 in1010.2 mb 0.02 in0.5 mm 0.00 in/hr0.0 mm/hr 0.02 in0.5 mm
02:50 AM 44.0°F6.7°C 41.0°F5.0°C 89% 1.0 mph NE1.6 kmh NE 9.0 mph14.5 kmh 29.84 in1010.5 mb 0.02 in0.5 mm 0.06 in/hr1.5 mm/hr 0.02 in0.5 mm
02:40 AM 44.2°F6.8°C 41.2°F5.1°C 89% 1.0 mph NE1.6 kmh NE 6.0 mph9.7 kmh 29.84 in1010.5 mb 0.01 in0.3 mm 0.00 in/hr0.0 mm/hr 0.01 in0.3 mm
02:30 AM 44.4°F6.9°C 41.4°F5.2°C 89% 1.0 mph NE1.6 kmh NE 12.0 mph19.3 kmh 29.84 in1010.5 mb 0.01 in0.3 mm 0.00 in/hr0.0 mm/hr 0.01 in0.3 mm
02:20 AM 44.6°F7.0°C 41.6°F5.3°C 89% 2.0 mph NE3.2 kmh NE 10.0 mph16.1 kmh 29.84 in1010.5 mb 0.01 in0.3 mm 0.00 in/hr0.0 mm/hr 0.01 in0.3 mm
02:10 AM 44.9°F7.2°C 41.9°F5.5°C 89% 3.0 mph NE4.8 kmh NE 11.0 mph17.7 kmh 29.84 in1010.5 mb 0.01 in0.3 mm 0.06 in/hr1.5 mm/hr 0.01 in0.3 mm
02:00 AM 45.0°F7.2°C 41.7°F5.4°C 88% 3.0 mph NE4.8 kmh NE 12.0 mph19.3 kmh 29.85 in1010.8 mb 0.00 in0.0 mm 0.00 in/hr0.0 mm/hr 0.00 in0.0 mm
01:50 AM 45.4°F7.4°C 41.8°F5.4°C 87% 4.0 mph NE6.4 kmh NE 10.0 mph16.1 kmh 29.85 in1010.8 mb 0.00 in0.0 mm 0.00 in/hr0.0 mm/hr 0.00 in0.0 mm
01:40 AM 45.8°F7.7°C 42.2°F5.7°C 87% 1.0 mph NE1.6 kmh NE 10.0 mph16.1 kmh 29.85 in1010.8 mb 0.00 in0.0 mm 0.00 in/hr0.0 mm/hr 0.00 in0.0 mm
01:30 AM 46.1°F7.8°C 42.1°F5.6°C 86% 2.0 mph NE3.2 kmh NE 12.0 mph19.3 kmh 29.85 in1010.8 mb 0.00 in0.0 mm 0.00 in/hr0.0 mm/hr 0.00 in0.0 mm
01:20 AM 46.5°F8.1°C 42.2°F5.7°C 85% Calm Calm 7.0 mph11.3 kmh 29.85 in1010.8 mb 0.00 in0.0 mm 0.00 in/hr0.0 mm/hr 0.00 in0.0 mm
01:10 AM 46.8°F8.2°C 42.2°F5.7°C 84% 2.0 mph NE3.2 kmh NE 12.0 mph19.3 kmh 29.85 in1010.8 mb 0.00 in0.0 mm 0.00 in/hr0.0 mm/hr 0.00 in0.0 mm
01:00 AM 47.0°F8.3°C 42.1°F5.6°C 83% 5.0 mph NE8.0 kmh NE 12.0 mph19.3 kmh 29.85 in1010.8 mb 0.00 in0.0 mm 0.00 in/hr0.0 mm/hr 0.00 in0.0 mm
12:50 AM 47.2°F8.4°C 42.3°F5.7°C 83% 3.0 mph NE4.8 kmh NE 11.0 mph17.7 kmh 29.85 in1010.8 mb 0.00 in0.0 mm 0.00 in/hr0.0 mm/hr 0.00 in0.0 mm
12:40 AM 47.3°F8.5°C 42.4°F5.8°C 83% 2.0 mph ENE3.2 kmh ENE 13.0 mph20.9 kmh 29.86 in1011.2 mb 0.00 in0.0 mm 0.00 in/hr0.0 mm/hr 0.00 in0.0 mm
12:30 AM 47.6°F8.7°C 42.7°F5.9°C 83% 2.0 mph NE3.2 kmh NE 12.0 mph19.3 kmh 29.85 in1010.8 mb 0.00 in0.0 mm 0.00 in/hr0.0 mm/hr 0.00 in0.0 mm
12:20 AM 47.8°F8.8°C 42.9°F6.1°C 83% Calm Calm 10.0 mph16.1 kmh 29.86 in1011.2 mb 0.00 in0.0 mm 0.00 in/hr0.0 mm/hr 0.00 in0.0 mm
12:10 AM 48.1°F8.9°C 43.5°F6.4°C 84% 5.0 mph NE8.0 kmh NE 12.0 mph19.3 kmh 29.85 in1010.8 mb 0.00 in0.0 mm 0.00 in/hr0.0 mm/hr 0.00 in0.0 mm
12:00 AM 48.2°F9.0°C 44.5°F6.9°C 87% 1.0 mph NE1.6 kmh NE 7.0 mph11.3 kmh 29.86 in1011.2 mb 0.00 in0.0 mm 0.00 in/hr0.0 mm/hr 0.00 in0.0 mm